Time;durP1;ratioP1;P1;durP2;ratioP2;P2;SDS_P1;SDS_P2;PMS_P1;PMS_P2;Temp;Humidity;BMP_temperature;BMP_pressure;BME280_temperature;BME280_humidity;BME280_pressure;Samples;Min_cycle;Max_cycle;Signal;HPM_P1;HPM_P2
2021/06/20 00:01:24;;;;;;;2.50;1.10;;;;;;;;;;4438380;32;20038;-67
2021/06/20 00:03:50;;;;;;;1.15;1.00;;;;;;;;;;4437887;32;20042;-67
2021/06/20 00:06:28;;;;;;;2.73;0.90;;;;;;;;;;4438319;32;20098;-67
2021/06/20 00:08:55;;;;;;;1.20;1.10;;;;;;;;;;4438122;32;20159;-67
2021/06/20 00:11:22;;;;;;;2.45;1.05;;;;;;;;;;4437757;32;20495;-67
2021/06/20 00:13:48;;;;;;;1.83;1.12;;;;;;;;;;4438141;32;20026;-67
2021/06/20 00:16:14;;;;;;;3.40;1.33;;;;;;;;;;4437889;32;20094;-67
2021/06/20 00:18:40;;;;;;;1.73;0.87;;;;;;;;;;4437674;32;20042;-67
2021/06/20 00:21:06;;;;;;;3.25;0.90;;;;;;;;;;4437335;32;20034;-67
2021/06/20 00:23:32;;;;;;;1.95;1.10;;;;;;;;;;4438142;32;20052;-67
2021/06/20 00:25:58;;;;;;;2.97;1.10;;;;;;;;;;4435772;32;20029;-67
2021/06/20 00:28:24;;;;;;;1.85;0.98;;;;;;;;;;4437977;32;20025;-67
2021/06/20 00:30:51;;;;;;;1.67;0.80;;;;;;;;;;4437893;32;20427;-67
2021/06/20 00:33:17;;;;;;;1.53;1.07;;;;;;;;;;4437557;32;20409;-67
2021/06/20 00:35:43;;;;;;;2.22;0.95;;;;;;;;;;4437363;32;20223;-67
2021/06/20 00:38:10;;;;;;;2.30;1.00;;;;;;;;;;4437241;32;20078;-67
2021/06/20 00:40:36;;;;;;;1.33;1.00;;;;;;;;;;4437574;32;20105;-67
2021/06/20 00:43:02;;;;;;;1.50;1.12;;;;;;;;;;4437633;32;20449;-67
2021/06/20 00:45:28;;;;;;;2.75;1.10;;;;;;;;;;4437803;32;20030;-67
2021/06/20 00:47:55;;;;;;;1.65;1.00;;;;;;;;;;4437430;32;20030;-67
2021/06/20 00:50:21;;;;;;;0.85;0.85;;;;;;;;;;4437283;32;20037;-67
2021/06/20 00:52:47;;;;;;;2.10;1.20;;;;;;;;;;4437230;32;20046;-67
2021/06/20 00:55:14;;;;;;;3.45;1.30;;;;;;;;;;4436980;32;20064;-67
2021/06/20 00:57:40;;;;;;;4.72;1.15;;;;;;;;;;4437504;32;20038;-67
2021/06/20 01:00:10;;;;;;;0.90;0.90;;;;;;;;;;4436810;32;20045;-67
2021/06/20 01:02:36;;;;;;;2.12;1.10;;;;;;;;;;4437545;32;20022;-67
2021/06/20 01:05:04;;;;;;;3.12;1.30;;;;;;;;;;4437331;32;20026;-67
2021/06/20 01:07:31;;;;;;;2.58;1.00;;;;;;;;;;4436925;32;20053;-67
2021/06/20 01:09:57;;;;;;;1.37;1.10;;;;;;;;;;4437268;32;20053;-67
2021/06/20 01:12:23;;;;;;;2.40;1.00;;;;;;;;;;4436843;32;20132;-67
2021/06/20 01:14:50;;;;;;;2.30;1.27;;;;;;;;;;4437391;32;20042;-67
2021/06/20 01:17:16;;;;;;;4.80;1.70;;;;;;;;;;4436700;32;20462;-67
2021/06/20 01:19:43;;;;;;;3.47;1.30;;;;;;;;;;4436610;32;20416;-69
2021/06/20 01:22:16;;;;;;;1.40;1.30;;;;;;;;;;4436814;32;20589;-67
2021/06/20 01:24:42;;;;;;;1.60;1.25;;;;;;;;;;4435560;32;20471;-67
2021/06/20 01:27:08;;;;;;;2.00;1.30;;;;;;;;;;4436756;32;20331;-67
2021/06/20 01:29:36;;;;;;;1.40;1.20;;;;;;;;;;4436763;32;20041;-67
2021/06/20 01:32:02;;;;;;;2.17;1.10;;;;;;;;;;4436658;32;20447;-67
2021/06/20 01:34:28;;;;;;;2.53;1.20;;;;;;;;;;4436570;32;20034;-67
2021/06/20 01:36:55;;;;;;;1.20;1.10;;;;;;;;;;4436333;32;20462;-67
2021/06/20 01:39:21;;;;;;;2.17;1.20;;;;;;;;;;4436576;32;20063;-67
2021/06/20 01:41:48;;;;;;;2.95;1.40;;;;;;;;;;4436465;32;20132;-67
2021/06/20 01:44:14;;;;;;;3.28;1.40;;;;;;;;;;4436671;32;20379;-67
2021/06/20 01:46:48;;;;;;;2.23;1.30;;;;;;;;;;4436538;32;20038;-67
2021/06/20 01:49:14;;;;;;;2.50;1.35;;;;;;;;;;4436748;32;20041;-67
2021/06/20 01:51:42;;;;;;;2.03;1.60;;;;;;;;;;4436414;32;20042;-67
2021/06/20 01:54:08;;;;;;;1.40;1.30;;;;;;;;;;4436191;32;20030;-68
2021/06/20 01:56:34;;;;;;;2.83;1.40;;;;;;;;;;4436288;32;20072;-67
2021/06/20 01:59:00;;;;;;;2.22;1.40;;;;;;;;;;4436027;32;20060;-67
2021/06/20 02:01:27;;;;;;;2.25;1.00;;;;;;;;;;4434957;32;20022;-67
2021/06/20 02:03:53;;;;;;;3.80;1.43;;;;;;;;;;4436105;32;20030;-67
2021/06/20 02:06:19;;;;;;;1.80;1.40;;;;;;;;;;4436196;32;20174;-67
2021/06/20 02:08:45;;;;;;;3.20;1.30;;;;;;;;;;4436258;32;20025;-67
2021/06/20 02:11:11;;;;;;;2.67;1.40;;;;;;;;;;4435923;32;20064;-67
2021/06/20 02:13:37;;;;;;;2.20;1.27;;;;;;;;;;4436174;32;20378;-67
2021/06/20 02:16:05;;;;;;;2.35;1.67;;;;;;;;;;4436176;32;20034;-67
2021/06/20 02:18:31;;;;;;;4.43;1.60;;;;;;;;;;4436148;32;20449;-67
2021/06/20 02:20:57;;;;;;;2.65;1.50;;;;;;;;;;4435580;32;20046;-67
2021/06/20 02:23:24;;;;;;;1.65;1.50;;;;;;;;;;4436115;32;20053;-68
2021/06/20 02:25:50;;;;;;;6.45;1.80;;;;;;;;;;4436544;32;20041;-68
2021/06/20 02:28:16;;;;;;;3.50;1.40;;;;;;;;;;4436134;32;20033;-67
2021/06/20 02:30:43;;;;;;;1.50;1.40;;;;;;;;;;4435969;32;20069;-67
2021/06/20 02:33:09;;;;;;;3.83;1.70;;;;;;;;;;4435861;32;20049;-68
2021/06/20 02:35:35;;;;;;;1.90;1.50;;;;;;;;;;4436064;32;20045;-67
2021/06/20 02:38:01;;;;;;;1.80;1.50;;;;;;;;;;4435874;32;20260;-68
2021/06/20 02:40:27;;;;;;;2.62;1.33;;;;;;;;;;4436142;32;20029;-67
2021/06/20 02:42:54;;;;;;;1.60;1.50;;;;;;;;;;4437603;32;20105;-67
2021/06/20 02:45:21;;;;;;;2.95;1.48;;;;;;;;;;4439030;32;20090;-68
2021/06/20 02:47:47;;;;;;;3.03;1.60;;;;;;;;;;4439258;32;20132;-67
2021/06/20 02:50:15;;;;;;;3.85;1.70;;;;;;;;;;4439207;32;20034;-67
2021/06/20 02:52:41;;;;;;;1.75;1.42;;;;;;;;;;4438970;32;20045;-67
2021/06/20 02:55:07;;;;;;;3.97;1.60;;;;;;;;;;4438691;32;20033;-67
2021/06/20 02:57:34;;;;;;;2.92;1.65;;;;;;;;;;4438922;32;20384;-67
2021/06/20 03:00:03;;;;;;;1.65;1.55;;;;;;;;;;4438649;32;20034;-67
2021/06/20 03:02:29;;;;;;;1.70;1.55;;;;;;;;;;4438748;32;20071;-67
2021/06/20 03:04:56;;;;;;;2.87;1.83;;;;;;;;;;4439098;32;20075;-67
2021/06/20 03:07:22;;;;;;;2.10;1.45;;;;;;;;;;4439146;32;20065;-68
2021/06/20 03:09:48;;;;;;;3.10;1.50;;;;;;;;;;4438749;32;20029;-67
2021/06/20 03:12:14;;;;;;;1.87;1.42;;;;;;;;;;4438690;32;20052;-67
2021/06/20 03:14:41;;;;;;;2.13;1.50;;;;;;;;;;4437511;32;20109;-67
2021/06/20 03:17:08;;;;;;;4.90;1.80;;;;;;;;;;4438327;32;20046;-67
2021/06/20 03:19:36;;;;;;;2.05;1.60;;;;;;;;;;4438937;32;20056;-67
2021/06/20 03:22:02;;;;;;;2.97;1.50;;;;;;;;;;4437297;32;20498;-67
2021/06/20 03:24:29;;;;;;;1.50;1.40;;;;;;;;;;4438478;32;20025;-67
2021/06/20 03:26:55;;;;;;;2.50;1.80;;;;;;;;;;4438289;32;20105;-67
2021/06/20 03:29:21;;;;;;;2.00;1.67;;;;;;;;;;4438868;32;20369;-67
2021/06/20 03:31:48;;;;;;;4.07;1.65;;;;;;;;;;4437217;32;20033;-67
2021/06/20 03:34:14;;;;;;;2.33;1.53;;;;;;;;;;4438682;32;20037;-67
2021/06/20 03:36:40;;;;;;;4.10;1.98;;;;;;;;;;4438789;32;20136;-67
2021/06/20 03:39:07;;;;;;;2.75;1.40;;;;;;;;;;4438325;32;20060;-67
2021/06/20 03:41:33;;;;;;;2.95;1.80;;;;;;;;;;4438206;32;20445;-67
2021/06/20 03:43:59;;;;;;;2.97;1.90;;;;;;;;;;4438489;32;20037;-67
2021/06/20 03:46:25;;;;;;;5.18;1.90;;;;;;;;;;4438181;32;20055;-67
2021/06/20 03:48:51;;;;;;;2.08;1.77;;;;;;;;;;4437983;32;20082;-67
2021/06/20 03:51:17;;;;;;;1.83;1.70;;;;;;;;;;4438049;32;20029;-67
2021/06/20 03:53:44;;;;;;;3.25;1.90;;;;;;;;;;4437667;32;20063;-67
2021/06/20 03:56:10;;;;;;;2.28;1.80;;;;;;;;;;4438365;32;20398;-67
2021/06/20 03:58:36;;;;;;;4.85;1.67;;;;;;;;;;4438520;32;20049;-67
2021/06/20 04:01:03;;;;;;;1.77;1.67;;;;;;;;;;4437760;32;20087;-67
2021/06/20 04:03:29;;;;;;;3.53;1.48;;;;;;;;;;4438361;32;20304;-67
2021/06/20 04:05:55;;;;;;;2.95;1.90;;;;;;;;;;4437586;32;20034;-67
2021/06/20 04:08:21;;;;;;;2.40;1.90;;;;;;;;;;4438422;32;20121;-67
2021/06/20 04:10:47;;;;;;;2.25;1.80;;;;;;;;;;4438116;32;20045;-67
2021/06/20 04:13:13;;;;;;;3.72;1.90;;;;;;;;;;4438134;32;20052;-67
2021/06/20 04:15:39;;;;;;;3.00;1.92;;;;;;;;;;4437912;32;20068;-67
2021/06/20 04:18:06;;;;;;;2.00;1.67;;;;;;;;;;4438010;32;20041;-67
2021/06/20 04:20:32;;;;;;;2.50;1.60;;;;;;;;;;4437553;32;20049;-66
2021/06/20 04:22:58;;;;;;;2.65;2.10;;;;;;;;;;4437502;32;20060;-67
2021/06/20 04:25:24;;;;;;;2.30;2.10;;;;;;;;;;4438147;32;20064;-67
2021/06/20 04:27:50;;;;;;;5.47;2.10;;;;;;;;;;4437495;32;20038;-67
2021/06/20 04:30:18;;;;;;;4.23;1.90;;;;;;;;;;4437601;32;20084;-67
2021/06/20 04:32:44;;;;;;;3.28;2.00;;;;;;;;;;4437500;32;20034;-67
2021/06/20 04:35:11;;;;;;;3.35;2.30;;;;;;;;;;4437253;32;20109;-67
2021/06/20 04:37:38;;;;;;;4.10;2.10;;;;;;;;;;4437435;32;20064;-67
2021/06/20 04:40:05;;;;;;;2.95;2.10;;;;;;;;;;4437532;32;20061;-67
2021/06/20 04:42:37;;;;;;;5.30;2.20;;;;;;;;;;4437872;32;20394;-67
2021/06/20 04:45:03;;;;;;;2.25;2.05;;;;;;;;;;4437417;32;20057;-67
2021/06/20 04:47:29;;;;;;;2.33;2.12;;;;;;;;;;4437611;32;20369;-67
2021/06/20 04:49:56;;;;;;;7.72;2.33;;;;;;;;;;4437098;32;20067;-67
2021/06/20 04:52:22;;;;;;;3.53;2.40;;;;;;;;;;4437719;32;20068;-67
2021/06/20 04:54:52;;;;;;;4.83;2.47;;;;;;;;;;4437711;32;20037;-67
2021/06/20 04:57:19;;;;;;;3.00;2.60;;;;;;;;;;4437106;32;20404;-67
2021/06/20 04:59:45;;;;;;;2.58;2.10;;;;;;;;;;4437048;32;20112;-67
2021/06/20 05:02:12;;;;;;;3.22;2.30;;;;;;;;;;4437148;32;20445;-66
2021/06/20 05:04:38;;;;;;;3.03;2.37;;;;;;;;;;4436670;32;20033;-67
2021/06/20 05:07:04;;;;;;;3.47;2.37;;;;;;;;;;4436786;32;20067;-67
2021/06/20 05:09:30;;;;;;;2.93;2.53;;;;;;;;;;4437004;32;20025;-67
2021/06/20 05:11:57;;;;;;;3.92;2.40;;;;;;;;;;4436784;32;20440;-67
2021/06/20 05:14:23;;;;;;;2.53;2.33;;;;;;;;;;4437388;32;20111;-67
2021/06/20 05:16:49;;;;;;;3.40;2.67;;;;;;;;;;4436683;32;20022;-67
2021/06/20 05:19:15;;;;;;;4.22;2.50;;;;;;;;;;4436654;32;20053;-67
2021/06/20 05:21:41;;;;;;;2.90;2.70;;;;;;;;;;4436674;32;20037;-67
2021/06/20 05:24:07;;;;;;;4.57;2.60;;;;;;;;;;4436592;32;20026;-67
2021/06/20 05:26:33;;;;;;;5.05;3.20;;;;;;;;;;4436730;32;20067;-67
2021/06/20 05:28:59;;;;;;;3.42;3.12;;;;;;;;;;4436985;32;20038;-67
2021/06/20 05:31:25;;;;;;;3.55;2.55;;;;;;;;;;4437017;32;20041;-67
2021/06/20 05:33:51;;;;;;;3.42;2.72;;;;;;;;;;4436429;32;20042;-67
2021/06/20 05:36:17;;;;;;;4.28;2.80;;;;;;;;;;4437110;32;20064;-67
2021/06/20 05:38:44;;;;;;;5.47;3.07;;;;;;;;;;4436982;32;20124;-67
2021/06/20 05:41:10;;;;;;;3.78;2.85;;;;;;;;;;4436297;32;20140;-67
2021/06/20 05:43:37;;;;;;;5.82;3.05;;;;;;;;;;4436901;32;20030;-67
2021/06/20 05:46:03;;;;;;;6.68;2.90;;;;;;;;;;4436303;32;20064;-66
2021/06/20 05:48:29;;;;;;;3.83;2.93;;;;;;;;;;4436624;32;20033;-67
2021/06/20 05:50:55;;;;;;;4.10;3.15;;;;;;;;;;4436706;32;20353;-66
2021/06/20 05:53:21;;;;;;;3.33;2.93;;;;;;;;;;4436267;32;20326;-67
2021/06/20 05:55:48;;;;;;;6.20;2.83;;;;;;;;;;4436804;32;20110;-67
2021/06/20 05:58:14;;;;;;;4.90;2.72;;;;;;;;;;4436582;32;20081;-67
2021/06/20 06:00:40;;;;;;;2.93;2.63;;;;;;;;;;4436228;32;20064;-67
2021/06/20 06:03:06;;;;;;;4.18;2.80;;;;;;;;;;4436525;32;20057;-67
2021/06/20 06:05:32;;;;;;;4.30;2.80;;;;;;;;;;4436214;32;20102;-67
2021/06/20 06:07:58;;;;;;;4.27;3.10;;;;;;;;;;4436477;32;20030;-67
2021/06/20 06:10:25;;;;;;;4.17;3.10;;;;;;;;;;4436625;32;20093;-67
2021/06/20 06:12:51;;;;;;;4.20;3.40;;;;;;;;;;4436239;32;20041;-67
2021/06/20 06:15:17;;;;;;;3.60;3.17;;;;;;;;;;4436536;32;20068;-67
2021/06/20 06:17:44;;;;;;;4.57;3.70;;;;;;;;;;4436493;32;20417;-67
2021/06/20 06:20:10;;;;;;;6.75;3.83;;;;;;;;;;4436016;32;20215;-67
2021/06/20 06:22:36;;;;;;;4.00;3.00;;;;;;;;;;4436257;32;20078;-67
2021/06/20 06:25:03;;;;;;;4.03;3.60;;;;;;;;;;4435808;32;20079;-67
2021/06/20 06:27:29;;;;;;;5.70;4.00;;;;;;;;;;4436555;32;20038;-67
2021/06/20 06:29:55;;;;;;;3.83;3.40;;;;;;;;;;4435890;32;20033;-66
2021/06/20 06:32:21;;;;;;;5.50;4.07;;;;;;;;;;4436497;32;20148;-67
2021/06/20 06:34:48;;;;;;;5.37;4.00;;;;;;;;;;4436473;32;20033;-67
2021/06/20 06:37:14;;;;;;;5.05;3.90;;;;;;;;;;4436131;32;20045;-67
2021/06/20 06:39:41;;;;;;;5.30;4.07;;;;;;;;;;4436430;32;20124;-67
2021/06/20 06:42:08;;;;;;;4.93;4.10;;;;;;;;;;4434400;32;20144;-66
2021/06/20 06:44:34;;;;;;;6.65;4.12;;;;;;;;;;4435964;32;20052;-66
2021/06/20 06:47:00;;;;;;;5.10;4.10;;;;;;;;;;4436123;32;20059;-66
2021/06/20 06:49:26;;;;;;;7.15;5.32;;;;;;;;;;4435856;32;20147;-67
2021/06/20 06:51:52;;;;;;;6.60;5.13;;;;;;;;;;4436147;32;20192;-67
2021/06/20 06:54:19;;;;;;;6.27;4.80;;;;;;;;;;4435913;32;20025;-67
2021/06/20 06:56:45;;;;;;;5.80;5.03;;;;;;;;;;4436184;32;20463;-67
2021/06/20 06:59:12;;;;;;;6.57;5.68;;;;;;;;;;4435568;32;20429;-68
2021/06/20 07:01:39;;;;;;;6.00;5.40;;;;;;;;;;4436079;32;20041;-67
2021/06/20 07:04:05;;;;;;;6.65;5.60;;;;;;;;;;4435961;32;20661;-68
2021/06/20 07:06:31;;;;;;;11.65;6.25;;;;;;;;;;4435904;32;20472;-64
2021/06/20 07:08:57;;;;;;;7.95;6.30;;;;;;;;;;4434184;32;20380;-65
2021/06/20 07:11:23;;;;;;;6.50;5.37;;;;;;;;;;4434955;32;20381;-65
2021/06/20 07:13:50;;;;;;;8.03;6.47;;;;;;;;;;4435726;32;20045;-66
2021/06/20 07:16:16;;;;;;;8.63;6.22;;;;;;;;;;4435723;32;20200;-66
2021/06/20 07:18:42;;;;;;;6.90;5.90;;;;;;;;;;4436171;32;20086;-66
2021/06/20 07:21:08;;;;;;;9.27;6.70;;;;;;;;;;4435262;32;20069;-66
2021/06/20 07:23:34;;;;;;;8.30;6.70;;;;;;;;;;4435688;32;20025;-66
2021/06/20 07:26:00;;;;;;;10.68;7.12;;;;;;;;;;4435265;32;20021;-66
2021/06/20 07:28:26;;;;;;;8.43;7.20;;;;;;;;;;4436641;32;20021;-65
2021/06/20 07:30:52;;;;;;;7.83;6.83;;;;;;;;;;4436946;32;20144;-66
2021/06/20 07:33:20;;;;;;;10.10;7.40;;;;;;;;;;4438935;32;20049;-67
2021/06/20 07:35:51;;;;;;;8.93;7.25;;;;;;;;;;4438298;32;20045;-66
2021/06/20 07:38:17;;;;;;;10.73;7.25;;;;;;;;;;4438596;32;20021;-66
2021/06/20 07:40:44;;;;;;;8.13;6.60;;;;;;;;;;4438563;32;20099;-67
2021/06/20 07:43:10;;;;;;;10.38;7.07;;;;;;;;;;4438512;32;20080;-66
2021/06/20 07:45:37;;;;;;;9.73;7.43;;;;;;;;;;4438180;32;20086;-66
2021/06/20 07:48:03;;;;;;;10.60;7.95;;;;;;;;;;4437953;32;20444;-67
2021/06/20 07:50:29;;;;;;;10.68;7.43;;;;;;;;;;4438561;32;20042;-68
2021/06/20 07:52:55;;;;;;;11.93;8.43;;;;;;;;;;4438317;32;20140;-69
2021/06/20 07:55:21;;;;;;;9.63;8.23;;;;;;;;;;4438460;32;20041;-68
2021/06/20 07:57:47;;;;;;;12.43;8.88;;;;;;;;;;4438407;32;20041;-71
2021/06/20 08:00:14;;;;;;;10.27;8.30;;;;;;;;;;4438024;32;20038;-69
2021/06/20 08:02:41;;;;;;;10.55;8.40;;;;;;;;;;4438146;32;20050;-70
2021/06/20 08:05:08;;;;;;;9.95;8.25;;;;;;;;;;4438135;32;20037;-69
2021/06/20 08:07:34;;;;;;;8.82;7.78;;;;;;;;;;4437788;32;20185;-67
2021/06/20 08:10:00;;;;;;;11.27;8.77;;;;;;;;;;4438189;32;20042;-68
2021/06/20 08:12:26;;;;;;;10.50;8.87;;;;;;;;;;4437697;32;20056;-66
2021/06/20 08:14:52;;;;;;;12.85;9.63;;;;;;;;;;4436701;32;20071;-67
2021/06/20 08:17:19;;;;;;;12.98;8.95;;;;;;;;;;4437679;32;20052;-67
2021/06/20 08:19:45;;;;;;;13.85;9.38;;;;;;;;;;4437507;32;20025;-71
2021/06/20 08:22:11;;;;;;;11.37;9.03;;;;;;;;;;4437683;32;20044;-65
2021/06/20 08:24:38;;;;;;;12.50;10.83;;;;;;;;;;4437996;32;20025;-67
2021/06/20 08:27:05;;;;;;;14.07;12.45;;;;;;;;;;4437289;32;20102;-66
2021/06/20 08:29:31;;;;;;;15.95;11.73;;;;;;;;;;4437400;32;20098;-66
2021/06/20 08:31:59;;;;;;;13.32;11.60;;;;;;;;;;4436261;32;20063;-65
2021/06/20 08:34:25;;;;;;;15.70;12.00;;;;;;;;;;4437802;32;20064;-66
2021/06/20 08:36:51;;;;;;;15.97;12.70;;;;;;;;;;4437658;32;20421;-66
2021/06/20 08:39:17;;;;;;;15.45;12.52;;;;;;;;;;4437737;32;20449;-65
2021/06/20 08:41:44;;;;;;;16.37;11.93;;;;;;;;;;4437684;32;20456;-68
2021/06/20 08:44:20;;;;;;;16.83;11.93;;;;;;;;;;4437524;32;20064;-68
2021/06/20 08:46:47;;;;;;;16.87;12.73;;;;;;;;;;4436617;32;20049;-70
2021/06/20 08:49:13;;;;;;;16.23;12.88;;;;;;;;;;4437407;32;20091;-67
2021/06/20 08:51:48;;;;;;;15.20;11.95;;;;;;;;;;4437445;32;20057;-67
2021/06/20 08:54:14;;;;;;;14.73;11.68;;;;;;;;;;4437433;32;20048;-67
2021/06/20 08:56:41;;;;;;;14.77;12.48;;;;;;;;;;4437567;32;20074;-68
2021/06/20 08:59:07;;;;;;;14.45;11.68;;;;;;;;;;4437365;32;20029;-68
2021/06/20 09:01:34;;;;;;;13.67;11.20;;;;;;;;;;4436956;32;20144;-67
2021/06/20 09:04:00;;;;;;;13.00;10.98;;;;;;;;;;4437212;32;20133;-67
2021/06/20 09:06:27;;;;;;;13.35;10.43;;;;;;;;;;4436729;32;20395;-69
2021/06/20 09:08:54;;;;;;;12.77;11.10;;;;;;;;;;4436031;32;20461;-69
2021/06/20 09:11:31;;;;;;;12.25;10.32;;;;;;;;;;4435390;32;20059;-67
2021/06/20 09:14:23;;;;;;;13.82;10.77;;;;;;;;;;4436588;32;20025;-68
2021/06/20 09:16:50;;;;;;;13.02;10.95;;;;;;;;;;4435191;32;20078;-68
2021/06/20 09:19:17;;;;;;;12.77;10.18;;;;;;;;;;4437155;32;20074;-68
2021/06/20 09:21:56;;;;;;;13.80;11.27;;;;;;;;;;4435049;32;20421;-67
2021/06/20 09:24:23;;;;;;;12.80;10.65;;;;;;;;;;4436636;32;20060;-68
2021/06/20 09:26:53;;;;;;;14.00;11.32;;;;;;;;;;4436719;32;20029;-68
2021/06/20 09:29:29;;;;;;;14.30;11.55;;;;;;;;;;4436636;32;20026;-68
2021/06/20 09:31:55;;;;;;;13.98;11.90;;;;;;;;;;4435288;32;20120;-68
2021/06/20 09:34:21;;;;;;;17.45;11.52;;;;;;;;;;4437055;32;20033;-68
2021/06/20 09:36:47;;;;;;;13.47;11.40;;;;;;;;;;4437050;32;20100;-68
2021/06/20 09:39:21;;;;;;;18.92;13.30;;;;;;;;;;4436242;32;20073;-68
2021/06/20 09:41:57;;;;;;;19.27;13.55;;;;;;;;;;4436859;32;20060;-68
2021/06/20 09:44:36;;;;;;;16.02;13.60;;;;;;;;;;4436502;32;20068;-68
2021/06/20 09:47:02;;;;;;;18.05;13.10;;;;;;;;;;4436749;32;20040;-68
2021/06/20 09:49:29;;;;;;;17.17;13.23;;;;;;;;;;4436706;32;20413;-68
2021/06/20 09:51:55;;;;;;;;;;;;;;;;;;4436178;32;20238;-68
2021/06/20 09:54:34;;;;;;;13.98;11.23;;;;;;;;;;4436854;32;19949;-68
2021/06/20 09:57:01;;;;;;;13.13;9.80;;;;;;;;;;4436089;32;20393;-68
2021/06/20 09:59:33;;;;;;;15.00;9.90;;;;;;;;;;4436217;32;20076;-68
2021/06/20 10:02:14;;;;;;;16.00;9.73;;;;;;;;;;4435860;32;20060;-68
2021/06/20 10:04:41;;;;;;;16.23;9.82;;;;;;;;;;4436253;32;20030;-68
2021/06/20 10:07:08;;;;;;;19.23;10.63;;;;;;;;;;4436456;32;20043;-68
2021/06/20 10:09:34;;;;;;;;;;;;;;;;;;4436363;32;20038;-68
2021/06/20 10:12:00;;;;;;;17.83;10.97;;;;;;;;;;4436270;32;20346;-68
2021/06/20 10:14:27;;;;;;;11.82;8.55;;;;;;;;;;4436001;32;20132;-69
2021/06/20 10:16:53;;;;;;;;;;;;;;;;;;4435983;32;20118;-69
2021/06/20 10:19:23;;;;;;;11.12;6.95;;;;;;;;;;4435578;32;19953;-69
2021/06/20 10:22:01;;;;;;;7.28;5.55;;;;;;;;;;4435800;32;20413;-68
2021/06/20 10:24:27;;;;;;;8.65;5.62;;;;;;;;;;4436513;32;20034;-68
2021/06/20 10:26:58;;;;;;;9.50;6.03;;;;;;;;;;4435783;32;20117;-66
2021/06/20 10:29:31;;;;;;;8.25;6.25;;;;;;;;;;4435807;32;20076;-69
2021/06/20 10:31:58;;;;;;;10.18;5.93;;;;;;;;;;4436086;32;20048;-67
2021/06/20 10:34:29;;;;;;;8.50;6.03;;;;;;;;;;4435744;32;20032;-69
2021/06/20 10:36:56;;;;;;;9.88;6.70;;;;;;;;;;4434566;32;20394;-67
2021/06/20 10:39:23;;;;;;;8.35;6.07;;;;;;;;;;4435869;32;20029;-67
2021/06/20 10:41:49;;;;;;;15.82;5.85;;;;;;;;;;4435844;32;20384;-68
2021/06/20 10:44:15;;;;;;;7.45;6.05;;;;;;;;;;4435780;32;20093;-68
2021/06/20 10:46:41;;;;;;;9.07;5.10;;;;;;;;;;4435398;32;20022;-64
2021/06/20 10:49:15;;;;;;;7.72;5.93;;;;;;;;;;4434957;32;20041;-65
2021/06/20 10:51:41;;;;;;;8.90;5.35;;;;;;;;;;4436214;32;20487;-66
2021/06/20 10:54:08;;;;;;;6.03;5.00;;;;;;;;;;4435964;32;20037;-67
2021/06/20 10:56:34;;;;;;;11.40;5.70;;;;;;;;;;4435611;32;20184;-68
2021/06/20 10:59:00;;;;;;;7.90;5.28;;;;;;;;;;4434524;32;20474;-68
2021/06/20 11:01:39;;;;;;;5.75;4.82;;;;;;;;;;4435697;32;20037;-68
2021/06/20 11:04:05;;;;;;;5.87;4.60;;;;;;;;;;4436283;32;20034;-68
2021/06/20 11:06:31;;;;;;;4.77;3.83;;;;;;;;;;4438759;32;20037;-68
2021/06/20 11:09:01;;;;;;;9.60;4.57;;;;;;;;;;4439033;32;20049;-67
2021/06/20 11:11:32;;;;;;;6.18;4.43;;;;;;;;;;4439063;32;20033;-68
2021/06/20 11:13:58;;;;;;;4.60;3.50;;;;;;;;;;4437014;32;20053;-67
2021/06/20 11:16:27;;;;;;;4.15;3.42;;;;;;;;;;4438438;32;20099;-65
2021/06/20 11:19:06;;;;;;;3.40;2.95;;;;;;;;;;4438360;32;20060;-67
2021/06/20 11:21:32;;;;;;;4.97;3.10;;;;;;;;;;4435050;32;20475;-67
2021/06/20 11:23:58;;;;;;;5.53;3.22;;;;;;;;;;4438048;32;20113;-67
2021/06/20 11:29:09;;;;;;;4.62;2.95;;;;;;;15.21;82.42;100967.31;4424542;31;108909;-68
2021/06/20 11:31:55;;;;;;;7.22;3.28;;;;;;;15.21;82.42;100967.31;4425793;32;20401;-68
2021/06/20 11:34:22;;;;;;;3.27;2.80;;;;;;;14.79;83.45;100973.78;4434523;32;20056;-67
2021/06/20 11:36:47;;;;;;;4.25;3.03;;;;;;;14.64;84.19;100966.97;4435886;32;20120;-66
2021/06/20 11:39:15;;;;;;;5.10;2.92;;;;;;;14.63;83.47;100970.53;4449099;32;20065;-63
2021/06/20 11:41:48;;;;;;;3.95;2.92;;;;;;;14.63;83.97;100973.16;4445608;32;50732;-62
2021/06/20 11:46:38;;;;;;;4.62;2.85;;;;;;;15.25;81.56;100981.03;4456610;31;109919;-66
2021/06/20 11:49:07;;;;;;;7.47;2.78;;;;;;;15.25;81.56;100981.03;4432622;32;20045;-67
2021/06/20 11:51:37;;;;;;;4.30;3.00;;;;;;;15.25;80.08;100991.50;4432473;32;20402;-66
2021/06/20 11:54:15;;;;;;;4.18;2.97;;;;;;;15.13;81.15;100984.50;4433689;32;20089;-68
2021/06/20 11:56:45;;;;;;;4.55;3.08;;;;;;;15.25;80.29;100996.75;4434449;32;20074;-66
2021/06/20 11:59:12;;;;;;;3.55;2.60;;;;;;;15.08;79.44;100992.72;4433599;32;20122;-67
2021/06/20 12:01:46;;;;;;;5.65;3.28;;;;;;;15.26;79.62;101003.69;4432018;32;20097;-67
2021/06/20 12:04:16;;;;;;;4.10;2.70;;;;;;;15.21;80.04;100993.53;4434042;32;20063;-68
2021/06/20 12:06:43;;;;;;;7.62;3.00;;;;;;;15.30;79.29;100997.25;4433744;32;20101;-65
2021/06/20 12:09:11;;;;;;;9.50;2.75;;;;;;;15.35;79.59;100992.53;4433530;32;20081;-68
2021/06/20 12:11:40;;;;;;;3.67;2.70;;;;;;;15.62;78.74;100999.37;4433735;32;20101;-66
2021/06/20 12:14:08;;;;;;;4.10;2.70;;;;;;;15.56;77.94;101005.88;4433638;32;20083;-67
2021/06/20 12:16:47;;;;;;;3.92;2.62;;;;;;;15.46;79.21;101002.25;4433509;32;20117;-66
2021/06/20 12:19:15;;;;;;;5.28;3.17;;;;;;;15.42;79.59;101011.28;4433377;32;20098;-69
2021/06/20 12:21:43;;;;;;;6.72;3.53;;;;;;;15.39;78.75;101008.91;4433527;32;20076;-67
2021/06/20 12:24:13;;;;;;;5.40;3.28;;;;;;;15.21;79.62;101018.91;4433312;32;20696;-66
2021/06/20 12:26:48;;;;;;;8.27;3.75;;;;;;;15.22;79.73;101012.72;4432016;32;20540;-66
2021/06/20 12:29:15;;;;;;;5.07;3.47;;;;;;;14.91;80.34;101021.88;4433698;32;20046;-66
2021/06/20 12:31:42;;;;;;;6.97;3.72;;;;;;;15.28;80.34;101014.03;4433838;32;20121;-70
2021/06/20 12:34:10;;;;;;;6.80;3.55;;;;;;;15.71;78.32;101019.72;4433179;32;20105;-66
2021/06/20 12:36:37;;;;;;;7.22;3.28;;;;;;;15.84;78.12;101010.00;4433667;32;20113;-65
2021/06/20 12:39:05;;;;;;;5.12;3.20;;;;;;;16.04;77.01;101011.16;4433064;32;20063;-66
2021/06/20 12:41:32;;;;;;;7.78;3.15;;;;;;;15.80;77.59;101013.81;4433174;32;20051;-67
2021/06/20 12:44:01;;;;;;;7.45;2.90;;;;;;;15.99;76.85;101013.28;4431792;32;20105;-68
2021/06/20 12:46:31;;;;;;;7.10;2.92;;;;;;;15.64;79.55;101021.06;4432827;32;20062;-68
2021/06/20 12:48:59;;;;;;;5.22;2.37;;;;;;;15.71;77.08;101021.50;4432881;32;20102;-67
2021/06/20 12:51:37;;;;;;;3.15;2.00;;;;;;;15.77;76.71;101027.13;4433134;32;20331;-68
2021/06/20 12:54:06;;;;;;;3.78;1.83;;;;;;;15.44;77.79;101031.22;4433375;32;20038;-67
2021/06/20 12:56:33;;;;;;;2.50;1.30;;;;;;;15.63;77.64;101030.72;4427720;32;20118;-68
2021/06/20 12:59:01;;;;;;;2.28;1.40;;;;;;;15.49;77.50;101037.91;4422760;32;20144;-67
2021/06/20 13:01:29;;;;;;;2.17;1.25;;;;;;;15.36;78.23;101036.16;4422754;32;20101;-67
2021/06/20 13:04:07;;;;;;;1.45;1.10;;;;;;;15.63;78.13;101043.00;4422431;32;20117;-70
2021/06/20 13:06:35;;;;;;;2.85;1.10;;;;;;;15.85;75.97;101048.44;4423006;32;20406;-68
2021/06/20 13:09:02;;;;;;;4.47;0.93;;;;;;;15.80;76.88;101054.94;4422743;32;20094;-67
2021/06/20 13:11:29;;;;;;;1.55;0.90;;;;;;;15.26;77.74;101056.12;4422593;32;20116;-67
2021/06/20 13:14:09;;;;;;;7.37;1.10;;;;;;;15.13;78.24;101058.75;4422510;32;20106;-67
2021/06/20 13:16:36;;;;;;;1.60;0.62;;;;;;;15.18;77.83;101064.50;4411765;32;20094;-67
2021/06/20 13:19:03;;;;;;;4.90;0.73;;;;;;;15.41;77.96;101070.78;4407081;32;20110;-67
2021/06/20 13:21:30;;;;;;;;;;;;;;;15.54;76.51;101075.13;4408005;32;20438;-67
2021/06/20 13:23:58;;;;;;;0.82;0.65;;;;;;;15.18;77.73;101077.63;4407114;32;19960;-68
2021/06/20 13:26:25;;;;;;;3.45;0.80;;;;;;;15.18;77.61;101082.00;4407598;32;20117;-67
2021/06/20 13:28:52;;;;;;;2.10;0.88;;;;;;;14.84;78.89;101080.84;4407285;32;20067;-69
2021/06/20 13:31:19;;;;;;;1.60;0.90;;;;;;;14.78;79.39;101077.72;4407653;32;20094;-68
2021/06/20 13:33:48;;;;;;;2.35;0.85;;;;;;;14.83;78.95;101079.19;4407303;32;20095;-68
2021/06/20 13:36:15;;;;;;;1.58;0.85;;;;;;;14.71;79.48;101092.16;4406999;32;20041;-69
2021/06/20 13:38:42;;;;;;;3.12;0.90;;;;;;;14.62;79.76;101099.78;4405620;32;20090;-70
2021/06/20 13:41:10;;;;;;;1.92;1.20;;;;;;;14.64;79.33;101100.53;4406780;32;20439;-68
2021/06/20 13:43:37;;;;;;;2.28;0.90;;;;;;;14.52;80.02;101091.69;4406850;32;20111;-68
2021/06/20 13:46:04;;;;;;;1.05;0.80;;;;;;;14.68;78.34;101096.75;4406518;32;20050;-68
2021/06/20 13:48:30;;;;;;;1.30;1.10;;;;;;;14.67;79.09;101100.31;4407407;32;20113;-68
2021/06/20 13:50:58;;;;;;;1.00;1.00;;;;;;;14.61;79.37;101106.78;4406699;32;20047;-66
2021/06/20 13:53:25;;;;;;;4.60;1.00;;;;;;;14.64;78.54;101108.37;4406868;32;20094;-67
2021/06/20 13:55:52;;;;;;;0.90;0.77;;;;;;;14.61;78.79;101105.97;4406996;32;20503;-67
2021/06/20 13:58:20;;;;;;;0.80;0.80;;;;;;;14.57;78.38;101115.81;4406010;32;20117;-67
2021/06/20 14:00:49;;;;;;;2.00;1.80;;;;;;;14.58;79.01;101120.94;4406783;32;20034;-67
2021/06/20 14:03:16;;;;;;;1.67;0.95;;;;;;;14.49;79.61;101121.53;4406961;32;20153;-66